sensor_id;sensor_type;location;lat;lon;timestamp;P1;durP1;ratioP1;P2;durP2;ratioP2
19163;SDS011;9714;51.208;4.242;2022-10-16T00:00:00;5.30;;;2.27;;
19163;SDS011;9714;51.208;4.242;2022-10-16T00:02:27;4.97;;;2.13;;
19163;SDS011;9714;51.208;4.242;2022-10-16T00:04:57;6.00;;;2.13;;
19163;SDS011;9714;51.208;4.242;2022-10-16T00:07:24;6.50;;;2.10;;
19163;SDS011;9714;51.208;4.242;2022-10-16T00:09:51;7.37;;;1.93;;
19163;SDS011;9714;51.208;4.242;2022-10-16T00:12:20;5.17;;;2.10;;
19163;SDS011;9714;51.208;4.242;2022-10-16T00:14:48;5.47;;;1.77;;
19163;SDS011;9714;51.208;4.242;2022-10-16T00:17:14;7.80;;;2.30;;
19163;SDS011;9714;51.208;4.242;2022-10-16T00:19:44;9.87;;;2.53;;
19163;SDS011;9714;51.208;4.242;2022-10-16T00:22:12;7.37;;;2.33;;
19163;SDS011;9714;51.208;4.242;2022-10-16T00:24:39;8.17;;;2.20;;
19163;SDS011;9714;51.208;4.242;2022-10-16T00:27:06;11.90;;;2.50;;
19163;SDS011;9714;51.208;4.242;2022-10-16T00:29:39;4.73;;;2.20;;
19163;SDS011;9714;51.208;4.242;2022-10-16T00:32:07;6.97;;;2.47;;
19163;SDS011;9714;51.208;4.242;2022-10-16T00:34:35;9.87;;;2.20;;
19163;SDS011;9714;51.208;4.242;2022-10-16T00:37:02;6.60;;;2.20;;
19163;SDS011;9714;51.208;4.242;2022-10-16T00:39:30;3.90;;;1.33;;
19163;SDS011;9714;51.208;4.242;2022-10-16T00:41:57;8.13;;;1.90;;
19163;SDS011;9714;51.208;4.242;2022-10-16T00:44:44;4.23;;;1.50;;
19163;SDS011;9714;51.208;4.242;2022-10-16T00:47:18;7.63;;;1.63;;
19163;SDS011;9714;51.208;4.242;2022-10-16T00:49:48;3.77;;;1.23;;
19163;SDS011;9714;51.208;4.242;2022-10-16T00:52:18;8.03;;;2.00;;
19163;SDS011;9714;51.208;4.242;2022-10-16T00:54:47;4.40;;;1.40;;
19163;SDS011;9714;51.208;4.242;2022-10-16T00:57:16;7.17;;;1.40;;
19163;SDS011;9714;51.208;4.242;2022-10-16T00:59:43;6.17;;;1.47;;
19163;SDS011;9714;51.208;4.242;2022-10-16T01:02:12;2.83;;;1.40;;
19163;SDS011;9714;51.208;4.242;2022-10-16T01:04:41;5.60;;;1.47;;
19163;SDS011;9714;51.208;4.242;2022-10-16T01:07:12;4.67;;;1.47;;
19163;SDS011;9714;51.208;4.242;2022-10-16T01:09:54;5.30;;;1.50;;
19163;SDS011;9714;51.208;4.242;2022-10-16T01:12:38;4.73;;;1.73;;
19163;SDS011;9714;51.208;4.242;2022-10-16T01:15:11;3.23;;;1.40;;
19163;SDS011;9714;51.208;4.242;2022-10-16T01:17:45;3.77;;;1.17;;
19163;SDS011;9714;51.208;4.242;2022-10-16T01:20:18;9.33;;;1.90;;
19163;SDS011;9714;51.208;4.242;2022-10-16T01:23:04;8.80;;;1.70;;
19163;SDS011;9714;51.208;4.242;2022-10-16T01:25:39;4.27;;;1.13;;
19163;SDS011;9714;51.208;4.242;2022-10-16T01:28:30;4.80;;;1.50;;
19163;SDS011;9714;51.208;4.242;2022-10-16T01:31:04;5.40;;;1.40;;
19163;SDS011;9714;51.208;4.242;2022-10-16T01:33:34;6.67;;;1.20;;
19163;SDS011;9714;51.208;4.242;2022-10-16T01:36:06;4.77;;;1.20;;
19163;SDS011;9714;51.208;4.242;2022-10-16T01:38:39;4.63;;;1.20;;
19163;SDS011;9714;51.208;4.242;2022-10-16T01:41:08;5.40;;;1.30;;
19163;SDS011;9714;51.208;4.242;2022-10-16T01:43:39;12.57;;;2.40;;
19163;SDS011;9714;51.208;4.242;2022-10-16T01:46:09;5.57;;;0.90;;
19163;SDS011;9714;51.208;4.242;2022-10-16T01:48:38;5.47;;;1.20;;
19163;SDS011;9714;51.208;4.242;2022-10-16T01:51:07;3.93;;;1.40;;
19163;SDS011;9714;51.208;4.242;2022-10-16T01:53:38;5.03;;;1.33;;
19163;SDS011;9714;51.208;4.242;2022-10-16T01:56:06;4.20;;;1.30;;
19163;SDS011;9714;51.208;4.242;2022-10-16T01:58:38;3.50;;;1.63;;
19163;SDS011;9714;51.208;4.242;2022-10-16T02:01:11;4.87;;;1.47;;
19163;SDS011;9714;51.208;4.242;2022-10-16T02:03:43;3.67;;;1.10;;
19163;SDS011;9714;51.208;4.242;2022-10-16T02:06:12;8.17;;;1.10;;
19163;SDS011;9714;51.208;4.242;2022-10-16T02:08:39;3.63;;;1.20;;
19163;SDS011;9714;51.208;4.242;2022-10-16T02:11:09;9.90;;;1.30;;
19163;SDS011;9714;51.208;4.242;2022-10-16T02:13:37;4.87;;;1.50;;
19163;SDS011;9714;51.208;4.242;2022-10-16T02:16:08;5.90;;;1.20;;
19163;SDS011;9714;51.208;4.242;2022-10-16T02:18:37;5.67;;;1.40;;
19163;SDS011;9714;51.208;4.242;2022-10-16T02:21:05;5.90;;;1.37;;
19163;SDS011;9714;51.208;4.242;2022-10-16T02:23:42;5.43;;;1.57;;
19163;SDS011;9714;51.208;4.242;2022-10-16T02:26:16;5.60;;;1.53;;
19163;SDS011;9714;51.208;4.242;2022-10-16T02:28:51;9.20;;;1.23;;
19163;SDS011;9714;51.208;4.242;2022-10-16T02:31:23;6.93;;;1.80;;
19163;SDS011;9714;51.208;4.242;2022-10-16T02:33:54;4.37;;;1.23;;
19163;SDS011;9714;51.208;4.242;2022-10-16T02:36:24;6.40;;;1.57;;
19163;SDS011;9714;51.208;4.242;2022-10-16T02:38:52;6.17;;;1.37;;
19163;SDS011;9714;51.208;4.242;2022-10-16T02:41:20;5.43;;;1.40;;
19163;SDS011;9714;51.208;4.242;2022-10-16T02:43:48;7.97;;;1.57;;
19163;SDS011;9714;51.208;4.242;2022-10-16T02:46:15;7.33;;;1.43;;
19163;SDS011;9714;51.208;4.242;2022-10-16T02:48:45;3.77;;;1.30;;
19163;SDS011;9714;51.208;4.242;2022-10-16T02:51:12;6.33;;;1.73;;
19163;SDS011;9714;51.208;4.242;2022-10-16T02:53:39;4.13;;;1.30;;
19163;SDS011;9714;51.208;4.242;2022-10-16T02:56:06;5.30;;;1.10;;
19163;SDS011;9714;51.208;4.242;2022-10-16T02:58:33;5.90;;;1.67;;
19163;SDS011;9714;51.208;4.242;2022-10-16T03:01:00;8.77;;;1.77;;
19163;SDS011;9714;51.208;4.242;2022-10-16T03:03:27;7.87;;;2.10;;
19163;SDS011;9714;51.208;4.242;2022-10-16T03:05:57;7.53;;;1.87;;
19163;SDS011;9714;51.208;4.242;2022-10-16T03:08:24;5.00;;;1.40;;
19163;SDS011;9714;51.208;4.242;2022-10-16T03:10:51;5.70;;;1.80;;
19163;SDS011;9714;51.208;4.242;2022-10-16T03:13:18;4.93;;;1.60;;
19163;SDS011;9714;51.208;4.242;2022-10-16T03:15:47;12.37;;;1.97;;
19163;SDS011;9714;51.208;4.242;2022-10-16T03:18:14;7.57;;;1.70;;
19163;SDS011;9714;51.208;4.242;2022-10-16T03:20:42;6.23;;;1.60;;
19163;SDS011;9714;51.208;4.242;2022-10-16T03:23:10;4.10;;;1.30;;
19163;SDS011;9714;51.208;4.242;2022-10-16T03:25:37;9.17;;;2.00;;
19163;SDS011;9714;51.208;4.242;2022-10-16T03:28:05;5.03;;;1.87;;
19163;SDS011;9714;51.208;4.242;2022-10-16T03:30:32;5.10;;;1.73;;
19163;SDS011;9714;51.208;4.242;2022-10-16T03:32:59;5.63;;;1.70;;
19163;SDS011;9714;51.208;4.242;2022-10-16T03:35:26;5.10;;;1.87;;
19163;SDS011;9714;51.208;4.242;2022-10-16T03:37:55;8.33;;;1.60;;
19163;SDS011;9714;51.208;4.242;2022-10-16T03:40:24;5.93;;;1.60;;
19163;SDS011;9714;51.208;4.242;2022-10-16T03:42:51;9.30;;;1.93;;
19163;SDS011;9714;51.208;4.242;2022-10-16T03:45:21;5.63;;;1.97;;
19163;SDS011;9714;51.208;4.242;2022-10-16T03:47:48;6.27;;;1.90;;
19163;SDS011;9714;51.208;4.242;2022-10-16T03:50:15;6.00;;;1.57;;
19163;SDS011;9714;51.208;4.242;2022-10-16T03:52:42;6.30;;;1.90;;
19163;SDS011;9714;51.208;4.242;2022-10-16T03:55:10;7.13;;;2.00;;
19163;SDS011;9714;51.208;4.242;2022-10-16T03:57:38;8.07;;;2.03;;
19163;SDS011;9714;51.208;4.242;2022-10-16T04:00:05;8.90;;;1.70;;
19163;SDS011;9714;51.208;4.242;2022-10-16T04:02:33;11.07;;;2.40;;
19163;SDS011;9714;51.208;4.242;2022-10-16T04:05:00;6.50;;;2.27;;
19163;SDS011;9714;51.208;4.242;2022-10-16T04:07:27;10.17;;;2.07;;
19163;SDS011;9714;51.208;4.242;2022-10-16T04:09:53;10.23;;;2.00;;
19163;SDS011;9714;51.208;4.242;2022-10-16T04:12:22;7.60;;;2.23;;
19163;SDS011;9714;51.208;4.242;2022-10-16T04:14:51;7.17;;;1.87;;
19163;SDS011;9714;51.208;4.242;2022-10-16T04:17:18;8.90;;;2.90;;
19163;SDS011;9714;51.208;4.242;2022-10-16T04:19:45;9.00;;;2.10;;
19163;SDS011;9714;51.208;4.242;2022-10-16T04:22:12;11.80;;;2.57;;
19163;SDS011;9714;51.208;4.242;2022-10-16T04:24:39;8.23;;;1.80;;
19163;SDS011;9714;51.208;4.242;2022-10-16T04:27:06;5.27;;;1.57;;
19163;SDS011;9714;51.208;4.242;2022-10-16T04:29:33;7.03;;;1.90;;
19163;SDS011;9714;51.208;4.242;2022-10-16T04:32:01;9.00;;;2.60;;
19163;SDS011;9714;51.208;4.242;2022-10-16T04:34:28;7.47;;;2.13;;
19163;SDS011;9714;51.208;4.242;2022-10-16T04:36:55;6.17;;;2.00;;
19163;SDS011;9714;51.208;4.242;2022-10-16T04:39:22;9.00;;;2.03;;
19163;SDS011;9714;51.208;4.242;2022-10-16T04:41:49;8.37;;;2.50;;
19163;SDS011;9714;51.208;4.242;2022-10-16T04:44:16;15.57;;;2.43;;
19163;SDS011;9714;51.208;4.242;2022-10-16T04:46:43;8.00;;;2.47;;
19163;SDS011;9714;51.208;4.242;2022-10-16T04:49:11;9.47;;;2.60;;
19163;SDS011;9714;51.208;4.242;2022-10-16T04:51:38;7.97;;;2.37;;
19163;SDS011;9714;51.208;4.242;2022-10-16T04:54:05;6.27;;;1.87;;
19163;SDS011;9714;51.208;4.242;2022-10-16T04:56:32;5.90;;;2.00;;
19163;SDS011;9714;51.208;4.242;2022-10-16T04:59:05;5.77;;;1.93;;
19163;SDS011;9714;51.208;4.242;2022-10-16T05:01:32;6.97;;;2.60;;
19163;SDS011;9714;51.208;4.242;2022-10-16T05:03:59;8.13;;;2.40;;
19163;SDS011;9714;51.208;4.242;2022-10-16T05:06:27;7.90;;;2.10;;
19163;SDS011;9714;51.208;4.242;2022-10-16T05:08:55;5.70;;;2.10;;
19163;SDS011;9714;51.208;4.242;2022-10-16T05:11:22;9.27;;;2.20;;
19163;SDS011;9714;51.208;4.242;2022-10-16T05:13:49;6.33;;;2.40;;
19163;SDS011;9714;51.208;4.242;2022-10-16T05:16:15;6.17;;;2.33;;
19163;SDS011;9714;51.208;4.242;2022-10-16T05:18:42;7.67;;;2.50;;
19163;SDS011;9714;51.208;4.242;2022-10-16T05:21:09;8.90;;;2.57;;
19163;SDS011;9714;51.208;4.242;2022-10-16T05:23:38;10.03;;;2.23;;
19163;SDS011;9714;51.208;4.242;2022-10-16T05:26:05;9.50;;;2.90;;
19163;SDS011;9714;51.208;4.242;2022-10-16T05:28:31;8.70;;;2.50;;
19163;SDS011;9714;51.208;4.242;2022-10-16T05:30:58;6.20;;;2.27;;
19163;SDS011;9714;51.208;4.242;2022-10-16T05:33:30;9.80;;;2.53;;
19163;SDS011;9714;51.208;4.242;2022-10-16T05:36:00;12.80;;;2.70;;
19163;SDS011;9714;51.208;4.242;2022-10-16T05:38:28;10.93;;;2.37;;
19163;SDS011;9714;51.208;4.242;2022-10-16T05:40:56;9.73;;;2.40;;
19163;SDS011;9714;51.208;4.242;2022-10-16T05:43:23;8.97;;;2.40;;
19163;SDS011;9714;51.208;4.242;2022-10-16T05:45:54;9.67;;;2.77;;
19163;SDS011;9714;51.208;4.242;2022-10-16T05:48:23;7.57;;;2.00;;
19163;SDS011;9714;51.208;4.242;2022-10-16T05:50:56;8.37;;;2.10;;
19163;SDS011;9714;51.208;4.242;2022-10-16T05:53:24;7.37;;;2.20;;
19163;SDS011;9714;51.208;4.242;2022-10-16T05:55:52;7.93;;;2.33;;
19163;SDS011;9714;51.208;4.242;2022-10-16T05:58:20;6.90;;;2.23;;
19163;SDS011;9714;51.208;4.242;2022-10-16T06:00:54;7.17;;;2.40;;
19163;SDS011;9714;51.208;4.242;2022-10-16T06:03:22;9.30;;;2.67;;
19163;SDS011;9714;51.208;4.242;2022-10-16T06:05:49;8.40;;;2.30;;
19163;SDS011;9714;51.208;4.242;2022-10-16T06:08:16;9.93;;;2.10;;
19163;SDS011;9714;51.208;4.242;2022-10-16T06:10:44;9.93;;;2.30;;
19163;SDS011;9714;51.208;4.242;2022-10-16T06:13:11;11.07;;;2.10;;
19163;SDS011;9714;51.208;4.242;2022-10-16T06:15:41;9.10;;;2.50;;
19163;SDS011;9714;51.208;4.242;2022-10-16T06:18:08;9.63;;;2.00;;
19163;SDS011;9714;51.208;4.242;2022-10-16T06:20:37;7.20;;;2.47;;
19163;SDS011;9714;51.208;4.242;2022-10-16T06:23:04;8.50;;;2.77;;
19163;SDS011;9714;51.208;4.242;2022-10-16T06:25:31;13.03;;;2.70;;
19163;SDS011;9714;51.208;4.242;2022-10-16T06:27:58;7.57;;;1.97;;
19163;SDS011;9714;51.208;4.242;2022-10-16T06:30:25;8.33;;;2.10;;
19163;SDS011;9714;51.208;4.242;2022-10-16T06:32:53;7.60;;;2.23;;
19163;SDS011;9714;51.208;4.242;2022-10-16T06:35:21;8.13;;;2.13;;
19163;SDS011;9714;51.208;4.242;2022-10-16T06:37:49;7.70;;;2.00;;
19163;SDS011;9714;51.208;4.242;2022-10-16T06:40:18;11.83;;;2.47;;
19163;SDS011;9714;51.208;4.242;2022-10-16T06:42:46;8.80;;;2.30;;
19163;SDS011;9714;51.208;4.242;2022-10-16T06:45:13;11.67;;;2.70;;
19163;SDS011;9714;51.208;4.242;2022-10-16T06:47:40;13.73;;;2.20;;
19163;SDS011;9714;51.208;4.242;2022-10-16T06:50:09;14.17;;;2.77;;
19163;SDS011;9714;51.208;4.242;2022-10-16T06:52:37;11.33;;;3.17;;
19163;SDS011;9714;51.208;4.242;2022-10-16T06:55:04;8.10;;;1.87;;
19163;SDS011;9714;51.208;4.242;2022-10-16T06:57:32;11.93;;;2.33;;
19163;SDS011;9714;51.208;4.242;2022-10-16T06:59:59;9.17;;;1.90;;
19163;SDS011;9714;51.208;4.242;2022-10-16T07:02:27;5.80;;;1.50;;
19163;SDS011;9714;51.208;4.242;2022-10-16T07:04:54;14.77;;;6.40;;
19163;SDS011;9714;51.208;4.242;2022-10-16T07:07:25;10.23;;;2.10;;
19163;SDS011;9714;51.208;4.242;2022-10-16T07:09:52;6.07;;;1.57;;
19163;SDS011;9714;51.208;4.242;2022-10-16T07:12:25;6.67;;;1.90;;
19163;SDS011;9714;51.208;4.242;2022-10-16T07:14:53;5.97;;;1.63;;
19163;SDS011;9714;51.208;4.242;2022-10-16T07:17:23;6.87;;;1.70;;
19163;SDS011;9714;51.208;4.242;2022-10-16T07:19:52;12.83;;;2.63;;
19163;SDS011;9714;51.208;4.242;2022-10-16T07:22:21;8.07;;;1.90;;
19163;SDS011;9714;51.208;4.242;2022-10-16T07:24:50;7.47;;;2.20;;
19163;SDS011;9714;51.208;4.242;2022-10-16T07:27:19;9.30;;;2.07;;
19163;SDS011;9714;51.208;4.242;2022-10-16T07:29:51;8.53;;;1.70;;
19163;SDS011;9714;51.208;4.242;2022-10-16T07:32:17;7.30;;;1.80;;
19163;SDS011;9714;51.208;4.242;2022-10-16T07:34:50;7.93;;;1.60;;
19163;SDS011;9714;51.208;4.242;2022-10-16T07:37:19;7.10;;;1.63;;
19163;SDS011;9714;51.208;4.242;2022-10-16T07:39:46;7.53;;;1.97;;
19163;SDS011;9714;51.208;4.242;2022-10-16T07:42:21;6.60;;;1.90;;
19163;SDS011;9714;51.208;4.242;2022-10-16T07:44:48;8.93;;;1.60;;
19163;SDS011;9714;51.208;4.242;2022-10-16T07:47:15;4.93;;;1.40;;
19163;SDS011;9714;51.208;4.242;2022-10-16T07:49:54;9.20;;;1.80;;
19163;SDS011;9714;51.208;4.242;2022-10-16T07:52:21;7.50;;;2.07;;
19163;SDS011;9714;51.208;4.242;2022-10-16T07:54:49;7.57;;;1.40;;
19163;SDS011;9714;51.208;4.242;2022-10-16T07:57:18;9.57;;;1.83;;
19163;SDS011;9714;51.208;4.242;2022-10-16T07:59:46;8.30;;;1.87;;
19163;SDS011;9714;51.208;4.242;2022-10-16T08:02:21;12.63;;;1.95;;
19163;SDS011;9714;51.208;4.242;2022-10-16T08:07:31;6.07;;;1.60;;
19163;SDS011;9714;51.208;4.242;2022-10-16T08:10:04;9.45;;;2.10;;
19163;SDS011;9714;51.208;4.242;2022-10-16T08:15:45;6.82;;;1.60;;
19163;SDS011;9714;51.208;4.242;2022-10-16T08:18:14;9.95;;;2.15;;
19163;SDS011;9714;51.208;4.242;2022-10-16T08:20:41;9.85;;;1.73;;
19163;SDS011;9714;51.208;4.242;2022-10-16T08:23:11;7.93;;;1.83;;
19163;SDS011;9714;51.208;4.242;2022-10-16T08:25:38;13.63;;;2.15;;
19163;SDS011;9714;51.208;4.242;2022-10-16T08:28:10;7.80;;;1.50;;
19163;SDS011;9714;51.208;4.242;2022-10-16T08:33:10;7.88;;;1.77;;
19163;SDS011;9714;51.208;4.242;2022-10-16T08:35:39;5.93;;;1.40;;
19163;SDS011;9714;51.208;4.242;2022-10-16T08:38:06;9.30;;;1.80;;
19163;SDS011;9714;51.208;4.242;2022-10-16T08:40:34;8.35;;;1.33;;
19163;SDS011;9714;51.208;4.242;2022-10-16T08:43:21;6.32;;;1.23;;
19163;SDS011;9714;51.208;4.242;2022-10-16T08:48:53;9.93;;;1.92;;
19163;SDS011;9714;51.208;4.242;2022-10-16T08:51:23;10.50;;;1.88;;
19163;SDS011;9714;51.208;4.242;2022-10-16T08:53:55;11.32;;;1.77;;
19163;SDS011;9714;51.208;4.242;2022-10-16T08:56:23;8.85;;;1.63;;
19163;SDS011;9714;51.208;4.242;2022-10-16T08:58:52;8.27;;;1.50;;
19163;SDS011;9714;51.208;4.242;2022-10-16T09:01:34;8.95;;;1.40;;
19163;SDS011;9714;51.208;4.242;2022-10-16T09:07:13;9.60;;;1.70;;
19163;SDS011;9714;51.208;4.242;2022-10-16T09:09:50;9.38;;;1.38;;
19163;SDS011;9714;51.208;4.242;2022-10-16T09:12:37;7.63;;;1.75;;
19163;SDS011;9714;51.208;4.242;2022-10-16T09:15:13;9.57;;;1.92;;
19163;SDS011;9714;51.208;4.242;2022-10-16T09:17:52;12.00;;;1.63;;
19163;SDS011;9714;51.208;4.242;2022-10-16T09:20:33;7.63;;;1.40;;
19163;SDS011;9714;51.208;4.242;2022-10-16T09:23:18;11.32;;;1.63;;
19163;SDS011;9714;51.208;4.242;2022-10-16T09:25:50;11.40;;;1.95;;
19163;SDS011;9714;51.208;4.242;2022-10-16T09:31:18;5.90;;;1.23;;
19163;SDS011;9714;51.208;4.242;2022-10-16T09:33:48;8.68;;;1.70;;
19163;SDS011;9714;51.208;4.242;2022-10-16T09:36:20;9.15;;;1.90;;
19163;SDS011;9714;51.208;4.242;2022-10-16T09:38:49;9.30;;;1.70;;
19163;SDS011;9714;51.208;4.242;2022-10-16T09:41:20;10.35;;;2.38;;
19163;SDS011;9714;51.208;4.242;2022-10-16T09:43:53;11.93;;;2.00;;
19163;SDS011;9714;51.208;4.242;2022-10-16T09:46:29;12.07;;;2.40;;
19163;SDS011;9714;51.208;4.242;2022-10-16T09:49:04;12.30;;;1.90;;
19163;SDS011;9714;51.208;4.242;2022-10-16T09:51:45;12.95;;;2.22;;
19163;SDS011;9714;51.208;4.242;2022-10-16T09:54:16;11.68;;;1.90;;
19163;SDS011;9714;51.208;4.242;2022-10-16T09:56:47;13.15;;;1.90;;
19163;SDS011;9714;51.208;4.242;2022-10-16T09:59:17;9.32;;;2.00;;
19163;SDS011;9714;51.208;4.242;2022-10-16T10:01:46;8.85;;;1.58;;
19163;SDS011;9714;51.208;4.242;2022-10-16T10:04:15;10.20;;;1.70;;
19163;SDS011;9714;51.208;4.242;2022-10-16T10:06:44;14.27;;;2.10;;
19163;SDS011;9714;51.208;4.242;2022-10-16T10:09:19;10.48;;;2.10;;
19163;SDS011;9714;51.208;4.242;2022-10-16T10:11:51;13.52;;;2.45;;
19163;SDS011;9714;51.208;4.242;2022-10-16T10:14:24;8.60;;;1.65;;
19163;SDS011;9714;51.208;4.242;2022-10-16T10:17:06;11.60;;;1.90;;
19163;SDS011;9714;51.208;4.242;2022-10-16T10:19:41;15.52;;;2.28;;
19163;SDS011;9714;51.208;4.242;2022-10-16T10:22:22;12.05;;;2.20;;
19163;SDS011;9714;51.208;4.242;2022-10-16T10:31:02;8.63;;;1.75;;
19163;SDS011;9714;51.208;4.242;2022-10-16T10:33:36;13.35;;;2.08;;
19163;SDS011;9714;51.208;4.242;2022-10-16T10:36:17;10.63;;;1.80;;
19163;SDS011;9714;51.208;4.242;2022-10-16T10:38:54;9.27;;;1.90;;
19163;SDS011;9714;51.208;4.242;2022-10-16T10:41:39;10.75;;;1.80;;
19163;SDS011;9714;51.208;4.242;2022-10-16T10:44:32;11.98;;;2.05;;
19163;SDS011;9714;51.208;4.242;2022-10-16T10:50:02;12.20;;;2.30;;
19163;SDS011;9714;51.208;4.242;2022-10-16T10:52:43;8.85;;;2.03;;
19163;SDS011;9714;51.208;4.242;2022-10-16T10:55:23;15.00;;;2.70;;
19163;SDS011;9714;51.208;4.242;2022-10-16T10:58:06;12.70;;;2.10;;
19163;SDS011;9714;51.208;4.242;2022-10-16T11:00:48;14.93;;;2.35;;
19163;SDS011;9714;51.208;4.242;2022-10-16T11:03:31;13.43;;;2.33;;
19163;SDS011;9714;51.208;4.242;2022-10-16T11:06:11;11.38;;;1.98;;
19163;SDS011;9714;51.208;4.242;2022-10-16T11:08:45;11.05;;;2.10;;
19163;SDS011;9714;51.208;4.242;2022-10-16T11:11:18;10.25;;;2.05;;
19163;SDS011;9714;51.208;4.242;2022-10-16T11:13:55;13.55;;;2.08;;
19163;SDS011;9714;51.208;4.242;2022-10-16T11:16:27;10.65;;;2.13;;
19163;SDS011;9714;51.208;4.242;2022-10-16T11:19:10;11.07;;;2.25;;
19163;SDS011;9714;51.208;4.242;2022-10-16T11:21:43;9.57;;;1.98;;
19163;SDS011;9714;51.208;4.242;2022-10-16T11:24:18;11.73;;;1.92;;
19163;SDS011;9714;51.208;4.242;2022-10-16T11:27:07;9.10;;;1.70;;
19163;SDS011;9714;51.208;4.242;2022-10-16T11:29:40;10.50;;;2.47;;
19163;SDS011;9714;51.208;4.242;2022-10-16T11:32:14;14.02;;;2.45;;
19163;SDS011;9714;51.208;4.242;2022-10-16T11:34:47;11.88;;;2.20;;
19163;SDS011;9714;51.208;4.242;2022-10-16T11:37:20;12.23;;;2.08;;
19163;SDS011;9714;51.208;4.242;2022-10-16T11:39:55;11.15;;;2.30;;
19163;SDS011;9714;51.208;4.242;2022-10-16T11:42:32;12.77;;;1.70;;
19163;SDS011;9714;51.208;4.242;2022-10-16T11:45:09;9.57;;;1.67;;
19163;SDS011;9714;51.208;4.242;2022-10-16T11:47:45;10.45;;;1.95;;
19163;SDS011;9714;51.208;4.242;2022-10-16T11:50:25;11.10;;;1.80;;
19163;SDS011;9714;51.208;4.242;2022-10-16T11:52:58;7.13;;;1.67;;
19163;SDS011;9714;51.208;4.242;2022-10-16T11:55:31;10.65;;;2.20;;
19163;SDS011;9714;51.208;4.242;2022-10-16T11:58:04;10.63;;;1.92;;
19163;SDS011;9714;51.208;4.242;2022-10-16T12:00:39;9.77;;;1.83;;
19163;SDS011;9714;51.208;4.242;2022-10-16T12:03:17;11.00;;;1.52;;
19163;SDS011;9714;51.208;4.242;2022-10-16T12:11:46;11.52;;;1.77;;
19163;SDS011;9714;51.208;4.242;2022-10-16T12:17:04;15.18;;;1.98;;
19163;SDS011;9714;51.208;4.242;2022-10-16T12:20:01;13.05;;;2.00;;
19163;SDS011;9714;51.208;4.242;2022-10-16T12:22:47;10.35;;;1.80;;
19163;SDS011;9714;51.208;4.242;2022-10-16T12:27:56;12.50;;;1.90;;
19163;SDS011;9714;51.208;4.242;2022-10-16T12:30:27;8.65;;;1.92;;
19163;SDS011;9714;51.208;4.242;2022-10-16T12:33:01;8.88;;;1.50;;
19163;SDS011;9714;51.208;4.242;2022-10-16T12:35:32;9.85;;;1.67;;
19163;SDS011;9714;51.208;4.242;2022-10-16T12:38:05;7.80;;;1.67;;
19163;SDS011;9714;51.208;4.242;2022-10-16T12:40:35;9.77;;;1.52;;
19163;SDS011;9714;51.208;4.242;2022-10-16T12:49:31;9.43;;;2.00;;
19163;SDS011;9714;51.208;4.242;2022-10-16T12:52:27;10.10;;;1.73;;
19163;SDS011;9714;51.208;4.242;2022-10-16T13:07:55;8.63;;;1.83;;
19163;SDS011;9714;51.208;4.242;2022-10-16T13:47:39;9.05;;;1.17;;
19163;SDS011;9714;51.208;4.242;2022-10-16T13:54:07;7.13;;;1.30;;
19163;SDS011;9714;51.208;4.242;2022-10-16T13:57:04;7.00;;;1.38;;
19163;SDS011;9714;51.208;4.242;2022-10-16T13:59:47;8.43;;;1.45;;
19163;SDS011;9714;51.208;4.242;2022-10-16T14:19:48;8.02;;;1.42;;
19163;SDS011;9714;51.208;4.242;2022-10-16T14:26:16;5.53;;;0.98;;
19163;SDS011;9714;51.208;4.242;2022-10-16T14:28:46;7.80;;;1.20;;
19163;SDS011;9714;51.208;4.242;2022-10-16T14:31:28;6.63;;;1.35;;
19163;SDS011;9714;51.208;4.242;2022-10-16T14:37:26;6.95;;;1.17;;
19163;SDS011;9714;51.208;4.242;2022-10-16T14:42:26;7.00;;;0.80;;
19163;SDS011;9714;51.208;4.242;2022-10-16T14:44:56;8.13;;;0.98;;
19163;SDS011;9714;51.208;4.242;2022-10-16T14:47:29;4.05;;;0.68;;
19163;SDS011;9714;51.208;4.242;2022-10-16T14:49:57;9.25;;;1.63;;
19163;SDS011;9714;51.208;4.242;2022-10-16T14:52:26;4.82;;;0.90;;
19163;SDS011;9714;51.208;4.242;2022-10-16T14:54:55;9.45;;;1.58;;
19163;SDS011;9714;51.208;4.242;2022-10-16T14:57:28;7.57;;;1.27;;
19163;SDS011;9714;51.208;4.242;2022-10-16T15:00:03;7.88;;;1.33;;
19163;SDS011;9714;51.208;4.242;2022-10-16T15:02:34;4.85;;;1.10;;
19163;SDS011;9714;51.208;4.242;2022-10-16T15:05:07;8.80;;;1.10;;
19163;SDS011;9714;51.208;4.242;2022-10-16T15:07:40;5.75;;;1.40;;
19163;SDS011;9714;51.208;4.242;2022-10-16T15:10:09;6.97;;;1.15;;
19163;SDS011;9714;51.208;4.242;2022-10-16T15:12:36;10.18;;;1.58;;
19163;SDS011;9714;51.208;4.242;2022-10-16T15:15:15;7.47;;;1.50;;
19163;SDS011;9714;51.208;4.242;2022-10-16T15:17:52;8.43;;;1.90;;
19163;SDS011;9714;51.208;4.242;2022-10-16T15:20:26;9.20;;;2.53;;
19163;SDS011;9714;51.208;4.242;2022-10-16T15:26:24;9.77;;;1.45;;
19163;SDS011;9714;51.208;4.242;2022-10-16T15:28:54;7.68;;;1.23;;
19163;SDS011;9714;51.208;4.242;2022-10-16T15:31:21;10.07;;;2.17;;
19163;SDS011;9714;51.208;4.242;2022-10-16T15:33:49;5.15;;;1.38;;
19163;SDS011;9714;51.208;4.242;2022-10-16T15:36:37;8.18;;;1.55;;
19163;SDS011;9714;51.208;4.242;2022-10-16T15:39:12;4.05;;;0.85;;
19163;SDS011;9714;51.208;4.242;2022-10-16T15:41:43;4.35;;;1.40;;
19163;SDS011;9714;51.208;4.242;2022-10-16T15:44:16;9.05;;;2.38;;
19163;SDS011;9714;51.208;4.242;2022-10-16T15:46:44;8.88;;;2.80;;
19163;SDS011;9714;51.208;4.242;2022-10-16T15:49:14;10.85;;;3.47;;
19163;SDS011;9714;51.208;4.242;2022-10-16T15:51:44;5.65;;;1.85;;
19163;SDS011;9714;51.208;4.242;2022-10-16T15:54:15;11.70;;;3.00;;
19163;SDS011;9714;51.208;4.242;2022-10-16T15:56:52;9.18;;;3.00;;
19163;SDS011;9714;51.208;4.242;2022-10-16T15:59:30;12.18;;;2.75;;
19163;SDS011;9714;51.208;4.242;2022-10-16T16:02:00;12.93;;;3.30;;
19163;SDS011;9714;51.208;4.242;2022-10-16T16:04:41;10.10;;;2.50;;
19163;SDS011;9714;51.208;4.242;2022-10-16T16:07:14;10.63;;;3.28;;
19163;SDS011;9714;51.208;4.242;2022-10-16T16:09:43;13.75;;;3.83;;
19163;SDS011;9714;51.208;4.242;2022-10-16T16:12:20;9.95;;;3.50;;
19163;SDS011;9714;51.208;4.242;2022-10-16T16:14:51;11.25;;;4.32;;
19163;SDS011;9714;51.208;4.242;2022-10-16T16:17:21;9.00;;;3.80;;
19163;SDS011;9714;51.208;4.242;2022-10-16T16:19:58;16.37;;;7.93;;
19163;SDS011;9714;51.208;4.242;2022-10-16T16:22:25;15.27;;;4.47;;
19163;SDS011;9714;51.208;4.242;2022-10-16T16:25:01;23.05;;;12.35;;
19163;SDS011;9714;51.208;4.242;2022-10-16T16:27:31;13.73;;;5.43;;
19163;SDS011;9714;51.208;4.242;2022-10-16T16:32:56;7.00;;;2.20;;
19163;SDS011;9714;51.208;4.242;2022-10-16T16:35:23;7.35;;;2.10;;
19163;SDS011;9714;51.208;4.242;2022-10-16T16:38:05;6.22;;;1.60;;
19163;SDS011;9714;51.208;4.242;2022-10-16T16:40:32;8.73;;;1.70;;
19163;SDS011;9714;51.208;4.242;2022-10-16T16:43:00;8.65;;;1.80;;
19163;SDS011;9714;51.208;4.242;2022-10-16T16:45:29;8.77;;;1.83;;
19163;SDS011;9714;51.208;4.242;2022-10-16T16:47:56;9.40;;;1.70;;
19163;SDS011;9714;51.208;4.242;2022-10-16T16:50:23;8.23;;;1.67;;
19163;SDS011;9714;51.208;4.242;2022-10-16T16:52:56;13.98;;;2.33;;
19163;SDS011;9714;51.208;4.242;2022-10-16T16:55:29;11.50;;;2.25;;
19163;SDS011;9714;51.208;4.242;2022-10-16T16:57:56;12.82;;;3.15;;
19163;SDS011;9714;51.208;4.242;2022-10-16T17:00:26;22.17;;;8.60;;
19163;SDS011;9714;51.208;4.242;2022-10-16T17:02:53;19.90;;;8.00;;
19163;SDS011;9714;51.208;4.242;2022-10-16T17:05:20;19.85;;;8.27;;
19163;SDS011;9714;51.208;4.242;2022-10-16T17:10:41;22.85;;;8.40;;
19163;SDS011;9714;51.208;4.242;2022-10-16T17:13:12;76.33;;;38.20;;
19163;SDS011;9714;51.208;4.242;2022-10-16T17:15:46;78.00;;;35.70;;
19163;SDS011;9714;51.208;4.242;2022-10-16T17:18:13;64.30;;;29.87;;
19163;SDS011;9714;51.208;4.242;2022-10-16T17:20:44;29.67;;;11.67;;
19163;SDS011;9714;51.208;4.242;2022-10-16T17:23:14;22.83;;;12.27;;
19163;SDS011;9714;51.208;4.242;2022-10-16T17:28:14;37.90;;;22.57;;
19163;SDS011;9714;51.208;4.242;2022-10-16T17:30:43;13.80;;;5.40;;
19163;SDS011;9714;51.208;4.242;2022-10-16T17:33:17;13.17;;;4.70;;
19163;SDS011;9714;51.208;4.242;2022-10-16T17:35:46;15.33;;;6.70;;
19163;SDS011;9714;51.208;4.242;2022-10-16T17:38:14;15.10;;;5.30;;